Time;durP1;ratioP1;P1;durP2;ratioP2;P2;SDS_P1;SDS_P2;PMS_P1;PMS_P2;Temp;Humidity;BMP_temperature;BMP_pressure;BME280_temperature;BME280_humidity;BME280_pressure;Samples;Min_cycle;Max_cycle;Signal;HPM_P1;HPM_P2
2022/07/16 00:01:23;;;;;;;1.60;1.60;;;;;;;24.37;59.43;99275.28;5132272;27;20198;-66
2022/07/16 00:03:52;;;;;;;1.53;1.53;;;;;;;24.40;59.16;99280.25;5132191;28;20206;-65
2022/07/16 00:06:20;;;;;;;2.47;2.13;;;;;;;24.43;58.45;99278.19;5132124;28;20226;-66
2022/07/16 00:08:47;;;;;;;1.93;1.87;;;;;;;24.43;58.63;99278.19;5131784;28;20194;-66
2022/07/16 00:11:14;;;;;;;1.60;1.60;;;;;;;24.43;57.98;99279.97;5132217;28;20210;-65
2022/07/16 00:13:41;;;;;;;1.67;1.67;;;;;;;24.38;57.32;99280.41;5132197;27;20212;-65
2022/07/16 00:16:09;;;;;;;2.00;1.90;;;;;;;24.39;57.64;99278.59;5132793;27;20197;-65
2022/07/16 00:21:23;;;;;;;5.10;1.70;;;;;;;24.23;57.21;99273.06;5136038;27;20258;-65
2022/07/16 00:23:50;;;;;;;1.30;1.30;;;;;;;24.35;57.20;99282.47;5135982;27;20201;-66
2022/07/16 00:26:17;;;;;;;2.07;1.97;;;;;;;24.35;56.77;99279.84;5135546;27;20221;-66
2022/07/16 00:28:44;;;;;;;1.90;1.83;;;;;;;24.34;57.04;99286.03;5135712;27;20210;-65
2022/07/16 00:31:11;;;;;;;5.60;1.70;;;;;;;24.32;56.99;99288.81;5135530;27;20666;-65
2022/07/16 00:33:38;;;;;;;1.97;1.87;;;;;;;24.31;57.48;99292.38;5135539;27;20190;-66
2022/07/16 00:36:05;;;;;;;1.23;1.23;;;;;;;24.26;57.27;99289.34;5135381;27;20210;-66
2022/07/16 00:38:34;;;;;;;1.93;1.83;;;;;;;24.28;57.27;99291.81;5135655;27;20669;-65
2022/07/16 00:41:01;;;;;;;1.30;1.30;;;;;;;24.30;57.52;99293.34;5135520;27;20771;-66
2022/07/16 00:43:27;;;;;;;1.50;1.40;;;;;;;24.29;57.76;99301.34;5135515;27;20319;-66
2022/07/16 00:45:55;;;;;;;1.60;1.50;;;;;;;24.25;58.16;99306.03;5135371;27;20218;-66
2022/07/16 00:48:21;;;;;;;1.50;1.50;;;;;;;24.10;59.65;99303.91;5135138;27;20197;-67
2022/07/16 00:50:48;;;;;;;2.23;2.13;;;;;;;23.78;62.38;99311.91;5135339;27;20743;-66
2022/07/16 00:53:15;;;;;;;2.30;2.20;;;;;;;23.46;64.94;99309.41;5135253;27;20216;-65
2022/07/16 00:55:44;;;;;;;2.40;2.30;;;;;;;23.28;66.43;99300.47;5135223;27;20205;-66
2022/07/16 00:58:10;;;;;;;2.50;2.40;;;;;;;23.34;66.00;99300.78;5135025;27;20198;-65
2022/07/16 01:00:37;;;;;;;2.50;2.40;;;;;;;23.42;66.01;99302.78;5135208;27;20669;-66
2022/07/16 01:03:06;;;;;;;2.17;2.07;;;;;;;23.39;67.03;99298.59;5135047;27;20201;-65
2022/07/16 01:05:33;;;;;;;2.30;2.20;;;;;;;23.36;66.66;99308.50;5135150;27;20330;-66
2022/07/16 01:08:01;;;;;;;1.80;1.80;;;;;;;23.23;67.29;99292.19;5134887;27;20673;-65
2022/07/16 01:10:28;;;;;;;1.93;1.83;;;;;;;23.25;66.83;99290.25;5134781;27;20198;-65
2022/07/16 01:12:59;;;;;;;2.17;2.07;;;;;;;23.33;67.02;99298.28;5134831;27;20197;-65
2022/07/16 01:15:26;;;;;;;2.40;2.20;;;;;;;23.35;66.77;99297.22;5134673;27;20209;-65
2022/07/16 01:17:53;;;;;;;2.93;2.03;;;;;;;23.39;66.52;99292.56;5134909;27;20677;-65
2022/07/16 01:20:20;;;;;;;2.30;2.10;;;;;;;23.41;66.25;99288.88;5134619;27;20208;-65
2022/07/16 01:22:47;;;;;;;2.20;2.10;;;;;;;23.38;66.15;99280.41;5134831;27;20204;-66
2022/07/16 01:25:16;;;;;;;3.47;2.13;;;;;;;23.44;65.92;99290.41;5134654;27;20194;-65
2022/07/16 01:27:43;;;;;;;2.03;1.93;;;;;;;23.40;65.16;99287.22;5133642;27;20222;-65
2022/07/16 01:30:10;;;;;;;3.07;2.10;;;;;;;23.40;64.66;99284.59;5134406;27;20578;-65
2022/07/16 01:32:38;;;;;;;1.90;1.80;;;;;;;23.38;65.03;99286.50;5134312;27;20609;-66
2022/07/16 01:35:06;;;;;;;2.10;2.00;;;;;;;23.39;64.45;99282.09;5134381;27;20194;-66
2022/07/16 01:37:32;;;;;;;2.13;1.93;;;;;;;23.34;63.88;99281.63;5134309;27;20696;-66
2022/07/16 01:39:59;;;;;;;2.20;2.00;;;;;;;23.30;63.87;99283.69;5134299;27;20209;-65
2022/07/16 01:42:27;;;;;;;2.30;2.20;;;;;;;23.29;63.53;99281.19;5134244;27;20213;-65
2022/07/16 01:44:54;;;;;;;3.70;2.20;;;;;;;23.24;64.06;99278.13;5134401;27;20201;-66
2022/07/16 01:47:21;;;;;;;2.40;2.30;;;;;;;23.31;64.60;99289.75;5134239;27;20221;-66
2022/07/16 01:49:48;;;;;;;2.23;2.13;;;;;;;23.30;64.25;99288.06;5134103;27;20205;-66
2022/07/16 01:52:18;;;;;;;3.77;2.43;;;;;;;23.27;63.98;99288.34;5134041;27;20226;-65
2022/07/16 01:54:47;;;;;;;1.50;1.40;;;;;;;23.25;64.45;99275.41;5134024;27;20210;-65
2022/07/16 01:57:15;;;;;;;2.17;1.97;;;;;;;23.20;63.89;99281.97;5133955;27;20194;-65
2022/07/16 01:59:44;;;;;;;1.87;1.87;;;;;;;23.19;63.06;99278.53;5134025;27;20210;-65
2022/07/16 02:02:11;;;;;;;2.17;2.07;;;;;;;23.21;63.11;99281.00;5133982;27;20255;-65
2022/07/16 02:04:41;;;;;;;1.57;1.57;;;;;;;23.18;62.39;99278.66;5133868;27;20590;-65
2022/07/16 02:07:08;;;;;;;1.70;1.70;;;;;;;23.12;62.83;99279.16;5133662;27;20214;-66
2022/07/16 02:09:35;;;;;;;1.97;1.87;;;;;;;23.08;64.30;99277.75;5134105;27;20674;-65
2022/07/16 02:12:02;;;;;;;1.87;1.83;;;;;;;23.01;64.90;99272.22;5133840;27;20254;-65
2022/07/16 02:14:29;;;;;;;5.33;2.10;;;;;;;22.90;65.58;99280.97;5133772;27;20202;-65
2022/07/16 02:16:57;;;;;;;2.23;2.03;;;;;;;22.88;65.37;99282.03;5133568;27;20197;-65
2022/07/16 02:19:24;;;;;;;2.03;1.93;;;;;;;22.83;65.29;99278.97;5133581;27;20217;-66
2022/07/16 02:21:51;;;;;;;2.70;2.10;;;;;;;22.74;65.62;99280.56;5133452;27;20209;-65
2022/07/16 02:24:18;;;;;;;2.37;1.90;;;;;;;22.75;66.08;99279.59;5133620;27;20209;-65
2022/07/16 02:26:45;;;;;;;1.93;1.83;;;;;;;22.75;66.27;99282.19;5133233;27;20218;-65
2022/07/16 02:29:12;;;;;;;2.97;1.80;;;;;;;22.72;65.96;99281.63;5133531;27;20674;-65
2022/07/16 02:31:39;;;;;;;2.53;2.43;;;;;;;22.71;66.04;99275.59;5133413;27;20202;-65
2022/07/16 02:34:07;;;;;;;2.10;2.00;;;;;;;22.69;65.59;99280.09;5133201;27;20202;-65
2022/07/16 02:36:34;;;;;;;2.23;2.10;;;;;;;22.70;65.19;99279.16;5133326;27;20209;-65
2022/07/16 02:39:01;;;;;;;1.80;1.70;;;;;;;22.67;65.05;99273.34;5133004;27;20201;-66
2022/07/16 02:41:27;;;;;;;2.00;1.90;;;;;;;22.66;65.06;99276.91;5133247;27;20213;-65
2022/07/16 02:43:54;;;;;;;1.87;1.83;;;;;;;22.68;64.64;99281.03;5132995;27;20255;-65
2022/07/16 02:46:21;;;;;;;2.27;2.00;;;;;;;22.68;64.58;99283.66;5133016;27;20210;-65
2022/07/16 02:48:48;;;;;;;2.37;2.27;;;;;;;22.69;64.05;99282.72;5133115;27;20210;-65
2022/07/16 02:51:16;;;;;;;1.73;1.63;;;;;;;22.69;63.38;99298.38;5132693;27;20218;-65
2022/07/16 02:53:43;;;;;;;1.93;1.83;;;;;;;22.70;63.46;99299.22;5133070;27;20209;-65
2022/07/16 02:56:10;;;;;;;2.20;2.10;;;;;;;22.70;63.49;99297.44;5132885;27;20201;-65
2022/07/16 02:58:37;;;;;;;1.87;1.80;;;;;;;22.68;64.18;99298.53;5133006;27;20198;-65
2022/07/16 03:01:04;;;;;;;2.10;2.00;;;;;;;22.48;64.83;99279.22;5132871;27;20209;-65
2022/07/16 03:03:30;;;;;;;1.80;1.80;;;;;;;22.58;65.63;99298.41;5133005;27;20198;-65
2022/07/16 03:05:57;;;;;;;1.90;1.80;;;;;;;22.57;65.78;99307.19;5132887;27;20209;-65
2022/07/16 03:08:25;;;;;;;1.93;1.83;;;;;;;22.49;66.27;99296.53;5132634;27;20222;-65
2022/07/16 03:10:52;;;;;;;2.10;2.10;;;;;;;22.49;66.71;99314.81;5132710;27;20259;-65
2022/07/16 03:13:19;;;;;;;2.10;2.10;;;;;;;22.47;68.38;99312.34;5132706;27;20219;-65
2022/07/16 03:15:46;;;;;;;3.00;2.23;;;;;;;22.39;70.55;99316.53;5132708;27;20205;-65
2022/07/16 03:18:13;;;;;;;2.23;2.13;;;;;;;22.30;72.36;99312.00;5132722;27;20194;-65
2022/07/16 03:20:40;;;;;;;2.63;2.53;;;;;;;22.27;73.29;99317.47;5132772;27;20214;-65
2022/07/16 03:23:06;;;;;;;3.90;2.37;;;;;;;22.28;73.63;99314.75;5132797;28;20213;-66
2022/07/16 03:25:35;;;;;;;2.03;1.93;;;;;;;22.30;73.75;99314.63;5132789;28;20201;-65
2022/07/16 03:28:01;;;;;;;2.10;2.00;;;;;;;22.30;74.15;99312.00;5132477;28;20266;-65
2022/07/16 03:30:29;;;;;;;2.80;2.70;;;;;;;22.27;74.62;99312.25;5132503;28;20217;-65
2022/07/16 03:32:55;;;;;;;2.10;2.00;;;;;;;22.22;75.51;99314.41;5132608;28;20593;-66
2022/07/16 03:35:22;;;;;;;2.53;2.43;;;;;;;22.19;75.20;99320.72;5132318;28;20194;-66
2022/07/16 03:40:35;;;;;;;2.30;2.20;;;;;;;22.19;75.32;99314.66;5132546;28;20700;-65
2022/07/16 03:43:01;;;;;;;2.43;2.33;;;;;;;22.22;74.71;99319.63;5132612;28;20590;-65
2022/07/16 03:45:28;;;;;;;2.63;2.53;;;;;;;22.28;73.92;99322.59;5132408;28;20696;-65
2022/07/16 03:47:55;;;;;;;2.97;2.37;;;;;;;22.36;73.75;99324.56;5132402;27;20221;-65
2022/07/16 03:50:22;;;;;;;1.90;1.80;;;;;;;22.43;73.67;99323.97;5132076;27;20232;-66
2022/07/16 03:52:49;;;;;;;2.40;2.30;;;;;;;22.54;72.84;99323.13;5136212;27;20198;-65
2022/07/16 03:55:16;;;;;;;7.83;2.73;;;;;;;22.65;71.68;99319.66;5136531;27;20669;-65
2022/07/16 03:57:45;;;;;;;2.27;2.17;;;;;;;22.74;70.68;99322.38;5136267;27;20674;-65
2022/07/16 04:00:13;;;;;;;4.30;2.33;;;;;;;22.78;69.44;99328.19;5136419;27;20669;-66
2022/07/16 04:02:40;;;;;;;2.07;1.90;;;;;;;22.90;68.38;99325.41;5136204;27;20221;-65
2022/07/16 04:05:07;;;;;;;1.50;1.50;;;;;;;23.06;67.78;99334.59;5136276;27;20209;-65
2022/07/16 04:07:34;;;;;;;1.93;1.83;;;;;;;23.19;66.65;99340.47;5115502;28;20665;-65
2022/07/16 04:10:01;;;;;;;1.93;1.93;;;;;;;23.31;66.45;99332.44;5135818;27;20209;-66
2022/07/16 04:12:28;;;;;;;2.17;2.07;;;;;;;23.35;67.29;99348.69;5136095;27;20202;-66
2022/07/16 04:14:56;;;;;;;9.90;2.33;;;;;;;23.36;66.81;99342.53;5135950;27;20231;-66
2022/07/16 04:17:23;;;;;;;3.20;2.37;;;;;;;23.45;66.92;99339.16;5136088;27;20613;-66
2022/07/16 04:19:50;;;;;;;2.20;2.10;;;;;;;23.57;65.98;99338.13;5135851;27;20691;-65
2022/07/16 04:22:17;;;;;;;4.73;2.50;;;;;;;23.62;65.88;99346.41;5135942;27;20198;-66
2022/07/16 04:24:43;;;;;;;2.30;2.20;;;;;;;23.73;65.23;99343.72;5135763;27;20202;-66
2022/07/16 04:27:10;;;;;;;4.17;2.43;;;;;;;23.84;64.49;99351.50;5135895;27;20226;-66
2022/07/16 04:29:37;;;;;;;1.60;1.60;;;;;;;23.86;64.07;99348.72;5135785;27;20209;-67
2022/07/16 04:32:06;;;;;;;2.77;2.67;;;;;;;24.05;64.75;99359.28;5135856;27;20205;-65
2022/07/16 04:34:33;;;;;;;2.03;1.93;;;;;;;24.20;64.46;99351.94;5135547;27;20251;-66
2022/07/16 04:37:00;;;;;;;2.17;1.60;;;;;;;24.34;63.96;99359.41;5135456;27;20238;-65
2022/07/16 04:39:27;;;;;;;2.13;2.03;;;;;;;24.42;63.01;99354.34;5135535;27;20198;-66
2022/07/16 04:41:54;;;;;;;1.90;1.90;;;;;;;24.63;62.38;99357.66;5135302;27;20194;-65
2022/07/16 04:44:21;;;;;;;1.67;1.60;;;;;;;24.81;63.04;99350.81;5135635;27;20589;-66
2022/07/16 04:46:47;;;;;;;1.83;1.83;;;;;;;25.15;59.89;99360.88;5135047;27;20293;-65
2022/07/16 04:49:16;;;;;;;1.97;1.70;;;;;;;25.32;59.23;99362.81;5135133;27;20205;-65
2022/07/16 04:51:42;;;;;;;1.37;1.37;;;;;;;25.52;58.02;99364.47;5135445;27;20229;-65
2022/07/16 04:54:09;;;;;;;1.70;1.60;;;;;;;25.69;57.12;99366.34;5135095;27;20210;-66
2022/07/16 04:56:36;;;;;;;1.50;1.40;;;;;;;25.88;56.34;99366.28;5135597;27;20198;-65
2022/07/16 04:59:03;;;;;;;1.70;1.70;;;;;;;26.02;56.79;99362.34;5134971;27;20578;-66
2022/07/16 05:01:30;;;;;;;1.87;1.77;;;;;;;26.21;56.39;99371.97;5135280;27;20674;-65
2022/07/16 05:03:56;;;;;;;1.53;1.33;;;;;;;26.34;55.43;99359.31;5133538;27;20201;-65
2022/07/16 05:06:25;;;;;;;2.90;1.90;;;;;;;26.64;54.56;99369.53;5135107;27;20589;-66
2022/07/16 05:08:52;;;;;;;1.87;1.53;;;;;;;26.93;53.04;99370.19;5135000;27;20748;-65
2022/07/16 05:11:19;;;;;;;2.30;1.63;;;;;;;27.16;52.02;99377.59;5134867;27;20212;-66
2022/07/16 05:13:46;;;;;;;5.17;2.07;;;;;;;27.29;53.79;99385.94;5134870;27;20198;-66
2022/07/16 05:16:13;;;;;;;2.70;1.60;;;;;;;27.49;53.46;99382.19;5134717;27;20194;-66
2022/07/16 05:18:40;;;;;;;1.47;1.47;;;;;;;27.57;51.12;99380.41;5134688;27;20206;-66
2022/07/16 05:21:07;;;;;;;3.37;2.07;;;;;;;27.50;52.38;99346.94;5134701;27;20202;-66
2022/07/16 05:23:36;;;;;;;2.17;1.97;;;;;;;27.91;51.85;99369.09;5134677;27;20198;-66
2022/07/16 05:26:03;;;;;;;1.70;1.70;;;;;;;28.09;52.34;99381.25;5134469;27;20210;-66
2022/07/16 05:28:30;;;;;;;2.50;1.67;;;;;;;28.27;51.41;99388.25;5134743;27;20217;-66
2022/07/16 05:30:57;;;;;;;1.90;1.83;;;;;;;28.44;49.61;99385.50;5134626;27;20678;-66
2022/07/16 05:33:24;;;;;;;3.90;1.90;;;;;;;28.61;49.23;99378.47;5118767;27;20200;-66
2022/07/16 05:35:51;;;;;;;2.37;2.13;;;;;;;28.62;47.20;99382.75;5134367;27;20202;-66
2022/07/16 05:38:18;;;;;;;2.77;2.47;;;;;;;28.69;49.82;99388.25;5134367;27;20202;-66
2022/07/16 05:40:46;;;;;;;2.47;2.37;;;;;;;28.76;48.54;99384.78;5134250;27;20205;-65
2022/07/16 05:43:13;;;;;;;1.90;1.80;;;;;;;28.63;48.24;99379.09;5134180;27;20197;-66
2022/07/16 05:45:39;;;;;;;2.07;1.97;;;;;;;28.59;47.52;99378.63;5120229;27;20654;-66
2022/07/16 05:48:07;;;;;;;2.33;2.07;;;;;;;28.68;49.23;99382.13;5118246;27;20230;-66
2022/07/16 05:50:33;;;;;;;11.00;3.50;;;;;;;28.80;47.24;99390.56;5115965;27;20702;-66
2022/07/16 05:53:00;;;;;;;2.63;2.20;;;;;;;28.82;47.27;99384.13;5124998;27;20198;-66
2022/07/16 05:55:28;;;;;;;2.03;1.93;;;;;;;28.94;47.58;99382.84;5116498;27;20195;-66
2022/07/16 05:57:56;;;;;;;6.53;2.83;;;;;;;29.07;46.29;99377.91;5130764;27;20186;-68
2022/07/16 06:00:23;;;;;;;4.83;2.60;;;;;;;29.23;46.36;99384.16;5128474;27;20198;-66
2022/07/16 06:02:50;;;;;;;20.25;3.00;;;;;;;29.37;43.80;99381.72;5133793;27;20692;-67
2022/07/16 06:05:17;;;;;;;2.20;2.10;;;;;;;29.36;43.63;99382.72;5133540;27;20762;-67
2022/07/16 06:07:44;;;;;;;4.32;2.22;;;;;;;29.44;45.34;99384.50;5132795;27;20213;-67
2022/07/16 06:10:11;;;;;;;2.17;2.08;;;;;;;29.60;45.46;99373.91;5128354;27;20226;-68
2022/07/16 06:12:38;;;;;;;7.93;2.30;;;;;;;29.74;45.12;99375.06;5125319;27;20250;-66
2022/07/16 06:15:10;;;;;;;2.00;1.90;;;;;;;29.87;43.07;99363.00;5122559;27;20218;-65
2022/07/16 06:17:38;;;;;;;2.60;2.10;;;;;;;30.01;44.02;99362.31;5130323;27;20194;-68
2022/07/16 06:20:07;;;;;;;3.92;2.00;;;;;;;30.03;42.31;99372.69;5121124;27;20203;-67
2022/07/16 06:22:34;;;;;;;3.67;3.00;;;;;;;29.97;43.77;99355.69;5114223;27;20198;-67
2022/07/16 06:25:01;;;;;;;2.70;1.98;;;;;;;30.27;45.01;99361.19;5125471;27;20731;-70
2022/07/16 06:27:28;;;;;;;2.25;1.92;;;;;;;30.60;45.53;99367.97;5126125;27;20438;-69
2022/07/16 06:29:56;;;;;;;2.13;2.03;;;;;;;30.90;42.11;99359.19;5118308;27;20206;-68
2022/07/16 06:32:24;;;;;;;3.85;2.28;;;;;;;31.19;42.42;99359.31;5110938;28;20666;-69
2022/07/16 06:34:51;;;;;;;3.47;1.50;;;;;;;31.31;43.20;99362.34;5111457;28;20202;-69
2022/07/16 06:37:18;;;;;;;2.33;1.30;;;;;;;31.38;41.74;99362.44;5111792;28;20202;-69
2022/07/16 06:39:44;;;;;;;1.80;1.80;;;;;;;31.60;40.31;99362.41;5111632;28;20187;-69
2022/07/16 06:42:11;;;;;;;4.72;2.30;;;;;;;31.90;41.40;99357.13;5130859;27;20262;-69
2022/07/16 06:44:39;;;;;;;4.65;2.25;;;;;;;32.22;41.91;99356.75;5132142;27;20578;-69
2022/07/16 06:47:07;;;;;;;2.67;2.00;;;;;;;32.14;40.76;99344.44;5131847;27;20251;-68
2022/07/16 06:49:35;;;;;;;1.52;1.42;;;;;;;32.27;39.07;99358.88;5132075;27;20297;-69
2022/07/16 06:52:02;;;;;;;2.83;2.35;;;;;;;32.45;38.94;99356.63;5131154;27;20232;-69
2022/07/16 06:54:28;;;;;;;10.07;2.40;;;;;;;32.61;37.92;99356.44;5132116;27;20194;-69
2022/07/16 06:56:55;;;;;;;2.45;1.80;;;;;;;32.87;38.31;99361.19;5129433;27;20201;-69
2022/07/16 06:59:22;;;;;;;3.63;2.08;;;;;;;32.91;38.94;99357.97;5131803;27;20201;-69
2022/07/16 07:01:49;;;;;;;2.47;2.15;;;;;;;33.25;39.01;99359.91;5131632;27;20258;-69
2022/07/16 07:04:15;;;;;;;2.05;1.65;;;;;;;33.58;38.84;99362.81;5131618;27;20234;-69
2022/07/16 07:06:44;;;;;;;2.15;1.60;;;;;;;33.75;36.49;99362.38;5131415;27;20198;-69
2022/07/16 07:09:10;;;;;;;1.80;1.70;;;;;;;33.71;35.57;99349.63;5131584;27;20217;-69
2022/07/16 07:11:37;;;;;;;1.48;1.48;;;;;;;33.77;37.25;99362.97;5132093;27;20597;-69
2022/07/16 07:14:04;;;;;;;2.22;2.13;;;;;;;33.95;35.11;99366.97;5128792;27;20201;-68
2022/07/16 07:16:31;;;;;;;2.15;2.05;;;;;;;33.89;35.73;99355.28;5116685;27;20202;-70
2022/07/16 07:18:58;;;;;;;2.85;2.58;;;;;;;34.06;36.95;99359.25;5118334;27;20198;-69
2022/07/16 07:21:25;;;;;;;1.80;1.75;;;;;;;34.16;35.93;99359.72;5110913;28;20201;-69
2022/07/16 07:23:54;;;;;;;6.28;2.60;;;;;;;34.09;34.53;99358.03;5111290;28;20199;-69
2022/07/16 07:26:21;;;;;;;6.22;2.78;;;;;;;34.28;35.62;99357.34;5112396;28;20327;-69
2022/07/16 07:28:48;;;;;;;6.00;1.85;;;;;;;34.53;35.10;99349.63;5115426;28;20217;-69
2022/07/16 07:31:15;;;;;;;2.28;2.17;;;;;;;34.77;34.24;99357.06;5115438;28;20198;-69
2022/07/16 07:33:42;;;;;;;2.30;1.98;;;;;;;35.04;33.90;99364.06;5132061;27;20565;-69
2022/07/16 07:36:08;;;;;;;4.10;1.80;;;;;;;35.18;33.42;99364.94;5135581;27;20209;-69
2022/07/16 07:38:36;;;;;;;1.98;1.88;;;;;;;35.29;33.25;99362.47;5135874;27;20654;-69
2022/07/16 07:41:05;;;;;;;1.65;1.55;;;;;;;35.55;33.89;99366.13;5135561;27;20202;-70
2022/07/16 07:43:31;;;;;;;1.77;1.67;;;;;;;35.82;32.56;99378.44;5135258;27;20666;-69
2022/07/16 07:45:58;;;;;;;4.60;1.83;;;;;;;35.83;35.83;99356.06;5135533;27;20198;-70
2022/07/16 07:48:25;;;;;;;2.05;1.30;;;;;;;35.68;33.28;99366.16;5131084;27;20206;-69
2022/07/16 07:50:52;;;;;;;1.58;1.50;;;;;;;35.80;34.48;99369.84;5115012;28;20227;-70
2022/07/16 07:53:19;;;;;;;3.20;1.60;;;;;;;35.94;34.28;99366.06;5114714;28;20202;-69
2022/07/16 07:55:45;;;;;;;1.98;1.83;;;;;;;36.09;33.55;99366.66;5114876;28;20209;-69
2022/07/16 07:58:13;;;;;;;2.75;1.30;;;;;;;35.89;34.35;99376.56;5114738;28;20202;-69
2022/07/16 08:00:41;;;;;;;8.85;2.03;;;;;;;36.15;35.15;99371.19;5118220;27;20207;-69
2022/07/16 08:03:08;;;;;;;1.50;1.50;;;;;;;36.38;34.18;99368.00;5114710;28;20201;-70
2022/07/16 08:05:35;;;;;;;1.85;1.75;;;;;;;36.64;32.83;99357.19;5114668;28;20289;-69
2022/07/16 08:08:02;;;;;;;4.15;2.28;;;;;;;36.82;35.67;99364.47;5121704;27;20205;-70
2022/07/16 08:10:29;;;;;;;1.58;1.58;;;;;;;36.89;32.78;99359.91;5131939;27;20209;-68
2022/07/16 08:12:56;;;;;;;1.92;1.42;;;;;;;36.94;32.72;99361.91;5127997;27;20673;-70
2022/07/16 08:15:24;;;;;;;1.60;1.50;;;;;;;36.82;30.69;99354.63;5117312;27;20202;-69
2022/07/16 08:17:51;;;;;;;1.42;1.40;;;;;;;36.65;31.06;99360.69;5133669;27;20205;-69
2022/07/16 08:20:19;;;;;;;1.90;1.80;;;;;;;36.77;32.38;99356.31;5134931;27;20194;-70
2022/07/16 08:22:46;;;;;;;7.38;2.03;;;;;;;36.90;31.50;99355.41;5122016;27;20198;-69
2022/07/16 08:27:59;;;;;;;14.70;3.38;;;;;;;37.11;31.57;99353.19;5133344;27;20201;-69
2022/07/16 08:30:27;;;;;;;1.90;1.80;;;;;;;37.12;31.23;99344.16;5132955;27;20213;-70
2022/07/16 08:32:54;;;;;;;1.98;1.88;;;;;;;37.33;31.76;99362.47;5134601;27;20186;-70
2022/07/16 08:35:21;;;;;;;3.92;1.60;;;;;;;37.44;33.09;99352.09;5134234;27;20190;-69
2022/07/16 08:37:49;;;;;;;1.60;1.60;;;;;;;37.33;30.18;99351.75;5134000;27;20198;-69
2022/07/16 08:40:18;;;;;;;1.98;1.77;;;;;;;37.46;30.02;99347.34;5134549;27;20681;-69
2022/07/16 08:42:45;;;;;;;14.20;3.70;;;;;;;37.35;29.49;99344.31;5134294;27;20573;-69
2022/07/16 08:45:13;;;;;;;1.65;1.65;;;;;;;37.52;31.63;99343.78;5134607;27;20677;-69
2022/07/16 08:47:42;;;;;;;1.45;1.45;;;;;;;37.55;29.07;99338.81;5134203;27;20190;-69
2022/07/16 08:50:11;;;;;;;1.65;1.65;;;;;;;37.58;29.26;99348.28;5122533;27;20229;-69
2022/07/16 08:52:40;;;;;;;1.73;1.73;;;;;;;37.50;28.76;99345.88;5114010;28;20206;-69
2022/07/16 08:55:09;;;;;;;1.67;1.58;;;;;;;37.40;30.27;99341.00;5113617;28;20199;-69
2022/07/16 08:57:38;;;;;;;1.83;1.67;;;;;;;37.22;27.04;99336.41;5113691;28;20206;-70
2022/07/16 09:00:06;;;;;;;7.25;1.90;;;;;;;37.46;30.97;99340.16;5113010;28;20191;-70
2022/07/16 09:02:34;;;;;;;6.20;2.00;;;;;;;37.53;28.74;99342.75;5113219;27;20202;-70
2022/07/16 09:05:02;;;;;;;1.55;1.55;;;;;;;37.71;29.80;99342.75;5113611;27;20194;-70
2022/07/16 09:07:29;;;;;;;8.57;2.40;;;;;;;37.91;29.61;99331.84;5113744;28;20198;-70
2022/07/16 09:09:56;;;;;;;14.63;3.15;;;;;;;38.05;30.75;99339.53;5116338;27;20225;-70
2022/07/16 09:12:37;;;;;;;10.88;2.58;;;;;;;38.03;28.62;99340.81;5118524;27;20205;-70
2022/07/16 09:15:26;;;;;;;3.30;2.20;;;;;;;38.03;28.83;99338.91;5132308;27;20202;-70
2022/07/16 09:18:10;;;;;;;2.20;1.48;;;;;;;38.16;28.20;99333.41;5112912;28;20220;-69
2022/07/16 09:20:39;;;;;;;1.60;1.50;;;;;;;38.22;26.88;99329.84;5128562;27;20198;-70
2022/07/16 09:23:18;;;;;;;2.97;2.70;;;;;;;38.57;30.08;99334.53;5132192;27;20201;-70
2022/07/16 09:25:48;;;;;;;2.35;1.98;;;;;;;38.55;27.60;99336.63;5123157;27;20289;-70
2022/07/16 09:28:15;;;;;;;1.90;1.80;;;;;;;38.71;28.18;99333.31;5112803;28;20199;-70
2022/07/16 09:30:42;;;;;;;2.45;2.10;;;;;;;38.93;28.17;99331.75;5113109;28;20199;-70
2022/07/16 09:33:13;;;;;;;4.10;1.80;;;;;;;38.97;26.41;99327.53;5112691;28;20191;-70
2022/07/16 09:35:42;;;;;;;11.15;3.08;;;;;;;38.95;27.12;99329.63;5113523;27;20199;-70
2022/07/16 09:38:09;;;;;;;2.05;1.95;;;;;;;38.77;26.85;99325.16;5112545;28;20198;-68
2022/07/16 09:40:38;;;;;;;2.08;1.98;;;;;;;38.80;29.40;99331.97;5113218;28;20282;-70
2022/07/16 09:43:19;;;;;;;8.52;2.38;;;;;;;38.92;30.50;99330.09;5112954;27;20205;-69
2022/07/16 09:45:47;;;;;;;8.50;3.20;;;;;;;39.02;27.72;99332.22;5112763;28;20191;-70
2022/07/16 09:48:22;;;;;;;2.08;1.98;;;;;;;39.07;27.39;99326.97;5112191;28;20255;-70
2022/07/16 09:50:52;;;;;;;1.67;1.67;;;;;;;39.20;29.32;99319.50;5112280;28;20721;-70
2022/07/16 09:53:20;;;;;;;1.77;1.77;;;;;;;39.23;29.23;99315.53;5131873;27;20201;-70
2022/07/16 09:55:59;;;;;;;14.48;3.20;;;;;;;39.26;28.97;99315.91;5132672;27;20259;-70
2022/07/16 09:58:26;;;;;;;13.38;4.20;;;;;;;39.14;26.68;99322.31;5132102;27;20954;-76
2022/07/16 10:00:53;;;;;;;2.50;2.40;;;;;;;39.17;28.59;99319.97;5125807;27;20933;-70
2022/07/16 10:03:20;;;;;;;2.33;2.30;;;;;;;39.21;28.81;99323.84;5117526;27;20205;-70
2022/07/16 10:05:47;;;;;;;2.30;2.15;;;;;;;39.28;29.33;99313.84;5126315;27;20198;-71
2022/07/16 10:08:17;;;;;;;1.92;1.92;;;;;;;39.14;28.49;99304.34;5123307;27;20197;-70
2022/07/16 10:10:44;;;;;;;2.35;2.22;;;;;;;39.13;28.28;99309.97;5122879;27;20223;-70
2022/07/16 10:13:12;;;;;;;4.35;2.95;;;;;;;39.23;27.22;99319.03;5114953;27;20199;-70
2022/07/16 10:15:40;;;;;;;2.30;2.20;;;;;;;39.39;27.06;99303.34;5128710;27;20202;-70
2022/07/16 10:18:32;;;;;;;1.60;1.50;;;;;;;39.55;26.41;99318.72;5128518;27;20198;-71
2022/07/16 10:21:04;;;;;;;13.57;2.97;;;;;;;39.42;25.43;99308.25;5119877;27;20569;-70
2022/07/16 10:23:33;;;;;;;1.77;1.70;;;;;;;39.36;25.59;99308.09;5113676;27;20227;-69
2022/07/16 10:26:01;;;;;;;1.55;1.55;;;;;;;39.19;25.85;99299.13;5120808;27;20202;-70
2022/07/16 10:28:40;;;;;;;1.75;1.67;;;;;;;39.26;24.93;99299.03;5129692;27;20693;-71
2022/07/16 10:31:31;;;;;;;1.85;1.42;;;;;;;39.38;28.66;99301.69;5116697;27;20198;-70
2022/07/16 10:34:36;;;;;;;1.90;1.80;;;;;;;39.42;27.00;99303.69;5115935;27;20209;-70
2022/07/16 10:37:04;;;;;;;1.60;1.60;;;;;;;39.51;25.07;99290.72;5117232;27;20212;-71
2022/07/16 10:39:33;;;;;;;1.50;1.50;;;;;;;39.64;27.66;99295.84;5118560;27;20202;-70
2022/07/16 10:42:01;;;;;;;1.55;1.55;;;;;;;39.68;24.60;99297.81;5115865;27;20677;-71
2022/07/16 10:44:44;;;;;;;1.90;1.40;;;;;;;39.18;27.02;99297.47;5121029;27;20198;-70
2022/07/16 10:47:12;;;;;;;1.38;1.38;;;;;;;39.06;24.70;99280.59;5125646;27;20586;-70
2022/07/16 10:49:39;;;;;;;1.95;1.80;;;;;;;38.68;25.84;99280.13;5120535;27;20214;-71
2022/07/16 10:52:08;;;;;;;1.88;1.77;;;;;;;38.99;26.62;99282.56;5121853;27;20226;-70
2022/07/16 10:54:37;;;;;;;1.65;1.58;;;;;;;38.95;25.39;99276.03;5119758;27;20289;-71
2022/07/16 10:57:06;;;;;;;3.35;1.70;;;;;;;38.91;25.97;99271.34;5120536;27;20267;-70
2022/07/16 10:59:34;;;;;;;1.70;1.60;;;;;;;38.93;26.46;99271.94;5116175;27;20195;-72
2022/07/16 11:02:02;;;;;;;1.35;1.35;;;;;;;38.75;25.37;99267.44;5124673;27;20202;-70
2022/07/16 11:04:33;;;;;;;1.67;1.67;;;;;;;38.79;26.47;99260.59;5125148;27;20206;-70
2022/07/16 11:07:02;;;;;;;73.47;7.90;;;;;;;38.82;26.74;99262.84;5118249;27;20199;-71
2022/07/16 11:09:31;;;;;;;3.05;2.30;;;;;;;38.88;26.16;99261.91;5122962;28;20218;-70
2022/07/16 11:12:10;;;;;;;1.85;1.48;;;;;;;38.74;25.96;99266.63;5125683;27;20250;-71
2022/07/16 11:14:37;;;;;;;1.60;1.55;;;;;;;38.85;26.23;99262.38;5117771;27;20204;-71
2022/07/16 11:17:04;;;;;;;1.90;1.80;;;;;;;38.97;27.82;99240.94;5122432;27;20207;-71
2022/07/16 11:19:35;;;;;;;4.28;2.70;;;;;;;38.92;27.13;99257.72;5128315;27;20205;-70
2022/07/16 11:22:03;;;;;;;1.77;1.67;;;;;;;39.08;26.98;99259.69;5115070;28;20203;-71
2022/07/16 11:24:30;;;;;;;1.70;1.70;;;;;;;38.94;26.46;99236.84;5113749;28;20709;-70
2022/07/16 11:26:59;;;;;;;7.32;2.75;;;;;;;38.78;26.84;99258.94;5118689;28;20210;-70
2022/07/16 11:29:28;;;;;;;1.80;1.80;;;;;;;38.82;27.28;99252.94;5122222;28;20213;-70
2022/07/16 11:31:58;;;;;;;2.00;2.00;;;;;;;38.88;27.85;99261.09;5120477;28;20207;-70
2022/07/16 11:34:25;;;;;;;3.33;2.00;;;;;;;39.08;27.03;99258.88;5120922;28;20206;-71
2022/07/16 11:36:54;;;;;;;2.15;2.05;;;;;;;39.16;26.47;99262.00;5119085;28;20289;-70
2022/07/16 11:39:24;;;;;;;1.77;1.77;;;;;;;39.14;27.63;99264.13;5118053;28;20191;-69
2022/07/16 11:41:52;;;;;;;2.15;2.15;;;;;;;39.04;24.97;99252.34;5122256;28;20202;-71
2022/07/16 11:44:21;;;;;;;2.15;2.10;;;;;;;38.82;26.71;99242.22;5114212;28;20210;-70
2022/07/16 11:46:51;;;;;;;2.63;2.53;;;;;;;38.95;27.17;99253.75;5121957;28;20203;-70